Time;durP1;ratioP1;P1;durP2;ratioP2;P2;SDS_P1;SDS_P2;PMS_P1;PMS_P2;Temp;Humidity;BMP_temperature;BMP_pressure;BME280_temperature;BME280_humidity;BME280_pressure;Samples;Min_cycle;Max_cycle;Signal;HPM_P1;HPM_P2
2022/12/07 00:00:17;;;;;;;15.55;9.93;;;;;;;1.07;90.60;96051.22;2041167;29;20062;-60
2022/12/07 00:01:20;;;;;;;15.70;10.20;;;;;;;1.08;91.01;96047.81;2041084;29;20480;-59
2022/12/07 00:02:21;;;;;;;15.40;9.55;;;;;;;1.05;90.66;96044.44;2041509;29;20074;-59
2022/12/07 00:03:22;;;;;;;14.30;9.45;;;;;;;1.01;91.01;96048.72;2041375;29;20052;-60
2022/12/07 00:04:23;;;;;;;15.23;9.52;;;;;;;0.97;91.36;96048.78;2041392;29;20055;-59
2022/12/07 00:05:24;;;;;;;15.55;10.48;;;;;;;1.00;91.50;96047.03;2041186;29;20506;-59
2022/12/07 00:06:25;;;;;;;16.48;10.27;;;;;;;0.98;91.18;96048.75;2041891;29;20047;-59
2022/12/07 00:07:26;;;;;;;15.55;10.18;;;;;;;1.02;91.25;96044.47;2041963;29;20062;-59
2022/12/07 00:08:27;;;;;;;16.50;10.90;;;;;;;1.03;90.91;96044.44;2041489;29;20054;-59
2022/12/07 00:09:29;;;;;;;16.58;10.55;;;;;;;1.05;90.89;96041.88;2041766;29;20135;-59
2022/12/07 00:10:30;;;;;;;17.38;10.50;;;;;;;1.05;90.97;96045.28;2041215;29;20488;-59
2022/12/07 00:11:31;;;;;;;16.05;10.63;;;;;;;1.04;90.71;96043.59;2041437;29;20043;-59
2022/12/07 00:12:32;;;;;;;16.40;10.80;;;;;;;1.01;90.83;96032.53;2041833;29;20059;-59
2022/12/07 00:13:33;;;;;;;15.73;9.93;;;;;;;1.02;90.88;96047.88;2041771;29;20407;-59
2022/12/07 00:14:34;;;;;;;15.20;10.60;;;;;;;1.00;91.06;96041.06;2041626;29;20039;-60
2022/12/07 00:15:35;;;;;;;16.30;10.63;;;;;;;1.03;91.00;96041.03;2041414;29;20055;-59
2022/12/07 00:16:36;;;;;;;14.90;9.68;;;;;;;0.99;90.88;96041.91;2041504;29;20062;-57
2022/12/07 00:17:37;;;;;;;16.08;9.65;;;;;;;0.99;90.82;96047.91;2041421;29;20055;-57
2022/12/07 00:18:39;;;;;;;17.05;10.85;;;;;;;0.93;91.43;96035.16;2041767;29;20455;-57
2022/12/07 00:19:40;;;;;;;15.95;10.57;;;;;;;1.00;90.98;96049.59;2041661;29;20043;-57
2022/12/07 00:20:41;;;;;;;16.90;10.35;;;;;;;1.01;91.07;96041.03;2041564;29;20047;-57
2022/12/07 00:21:42;;;;;;;15.48;10.25;;;;;;;1.03;91.17;96039.31;2041345;29;20052;-57
2022/12/07 00:22:43;;;;;;;16.15;10.05;;;;;;;0.97;91.06;96029.16;2041755;29;20051;-57
2022/12/07 00:23:45;;;;;;;15.63;10.10;;;;;;;1.03;90.65;96039.31;2041850;29;20391;-57
2022/12/07 00:24:46;;;;;;;14.80;10.05;;;;;;;0.98;91.27;96045.34;2041074;29;20058;-57
2022/12/07 00:25:49;;;;;;;15.88;9.82;;;;;;;0.95;91.04;96046.22;2041799;29;20043;-58
2022/12/07 00:26:50;;;;;;;15.02;9.88;;;;;;;0.99;90.78;96042.78;2040931;29;20067;-59
2022/12/07 00:27:52;;;;;;;13.82;9.85;;;;;;;1.04;90.83;96048.72;2041219;29;20063;-59
2022/12/07 00:28:55;;;;;;;16.00;10.45;;;;;;;1.05;90.70;96045.28;2040988;29;20048;-59
2022/12/07 00:29:56;;;;;;;16.52;10.13;;;;;;;1.07;90.35;96045.28;2041104;29;20045;-59
2022/12/07 00:31:04;;;;;;;16.95;10.98;;;;;;;0.99;90.27;96036.78;2041532;29;20044;-59
2022/12/07 00:32:05;;;;;;;16.83;10.63;;;;;;;0.98;90.27;96035.97;2041899;29;20046;-58
2022/12/07 00:33:07;;;;;;;16.48;9.82;;;;;;;1.02;90.48;96039.34;2041093;29;20148;-58
2022/12/07 00:34:15;;;;;;;17.65;10.55;;;;;;;0.97;90.67;96039.38;2040993;29;20050;-58
2022/12/07 00:35:16;;;;;;;17.00;9.95;;;;;;;0.98;90.47;96047.91;2040601;29;20151;-58
2022/12/07 00:36:22;;;;;;;14.20;9.77;;;;;;;0.98;90.39;96037.66;2040672;29;20044;-57
2022/12/07 00:37:23;;;;;;;16.58;10.73;;;;;;;0.98;90.24;96037.66;2041569;29;20048;-57
2022/12/07 00:38:24;;;;;;;14.32;10.13;;;;;;;0.97;90.54;96028.31;2041644;29;20412;-58
2022/12/07 00:39:25;;;;;;;15.38;10.75;;;;;;;1.00;90.27;96041.91;2041358;29;20078;-57
2022/12/07 00:40:26;;;;;;;16.45;10.35;;;;;;;1.01;90.61;96040.19;2041741;29;20055;-58
2022/12/07 00:41:28;;;;;;;14.52;10.38;;;;;;;0.89;90.39;96033.50;2041074;29;20059;-57
2022/12/07 00:42:29;;;;;;;13.82;10.00;;;;;;;0.94;90.58;96039.41;2041699;29;20059;-57
2022/12/07 00:43:30;;;;;;;16.35;10.82;;;;;;;0.97;90.50;96034.28;2041660;29;20048;-58
2022/12/07 00:44:31;;;;;;;17.92;11.23;;;;;;;0.97;90.24;96036.00;2041666;29;20032;-57
2022/12/07 00:45:32;;;;;;;15.60;10.60;;;;;;;0.85;90.30;96024.13;2041688;29;20035;-57
2022/12/07 00:46:33;;;;;;;13.93;10.23;;;;;;;0.90;90.59;96031.78;2040856;29;20055;-58
2022/12/07 00:47:34;;;;;;;15.57;10.57;;;;;;;0.95;90.65;96035.16;2041588;29;20053;-58
2022/12/07 00:48:35;;;;;;;15.93;10.27;;;;;;;0.98;90.38;96035.97;2041430;29;20056;-58
2022/12/07 00:49:36;;;;;;;17.27;10.82;;;;;;;0.99;90.39;96027.44;2041512;29;20364;-58
2022/12/07 00:50:38;;;;;;;17.63;11.13;;;;;;;1.00;90.25;96034.25;2041928;29;20101;-58
2022/12/07 00:51:39;;;;;;;16.13;10.23;;;;;;;0.92;90.42;96033.47;2041836;29;20193;-61
2022/12/07 00:52:40;;;;;;;16.23;10.35;;;;;;;0.92;90.94;96040.28;2040928;29;20388;-62
2022/12/07 00:53:41;;;;;;;15.85;10.45;;;;;;;0.92;90.32;96030.06;2041196;29;20063;-61
2022/12/07 00:54:42;;;;;;;15.65;10.25;;;;;;;0.86;90.65;96031.81;2041669;29;20048;-61
2022/12/07 00:55:43;;;;;;;16.13;10.43;;;;;;;0.78;90.93;96035.31;2041138;29;20060;-62
2022/12/07 00:56:44;;;;;;;17.38;11.00;;;;;;;0.83;90.96;96038.66;2041954;29;20040;-61
2022/12/07 00:57:45;;;;;;;16.55;10.60;;;;;;;0.86;91.03;96039.47;2040995;29;20055;-62
2022/12/07 00:58:56;;;;;;;15.82;10.57;;;;;;;0.90;90.96;96037.72;2040852;29;20456;-61
2022/12/07 00:59:58;;;;;;;16.15;10.05;;;;;;;0.92;90.37;96038.56;2040995;29;20047;-62
2022/12/07 01:01:02;;;;;;;14.60;9.80;;;;;;;0.91;91.00;96031.78;2040870;29;20047;-62
2022/12/07 01:02:04;;;;;;;19.88;10.63;;;;;;;0.87;91.10;96030.09;2041627;29;20036;-59
2022/12/07 01:03:05;;;;;;;16.33;10.15;;;;;;;0.82;91.22;96036.97;2041690;29;20043;-58
2022/12/07 01:04:06;;;;;;;14.65;9.63;;;;;;;0.82;91.26;96039.50;2041770;29;20383;-58
2022/12/07 01:05:08;;;;;;;15.55;9.90;;;;;;;0.83;91.27;96036.13;2041803;29;20056;-58
2022/12/07 01:06:09;;;;;;;16.30;10.02;;;;;;;0.83;91.09;96041.22;2041758;29;20023;-58
2022/12/07 01:07:10;;;;;;;18.05;11.20;;;;;;;0.81;91.43;96037.81;2040594;29;20052;-59
2022/12/07 01:08:11;;;;;;;14.93;9.90;;;;;;;0.81;90.97;96027.59;2033056;29;20381;-59
2022/12/07 01:09:12;;;;;;;16.23;10.63;;;;;;;0.82;91.11;96027.56;2041085;29;20032;-59
2022/12/07 01:10:14;;;;;;;16.73;10.63;;;;;;;0.82;90.82;96029.28;2040891;29;20051;-59
2022/12/07 01:11:16;;;;;;;17.45;11.05;;;;;;;0.82;91.21;96034.41;2041012;29;20047;-60
2022/12/07 01:12:17;;;;;;;16.85;10.82;;;;;;;0.83;91.09;96039.50;2040791;29;20063;-60
2022/12/07 01:13:19;;;;;;;17.20;11.40;;;;;;;0.85;91.03;96035.22;2040946;29;20538;-59
2022/12/07 01:14:20;;;;;;;17.00;11.02;;;;;;;0.78;91.08;96028.47;2041155;29;20067;-60
2022/12/07 01:15:21;;;;;;;17.50;10.88;;;;;;;0.79;91.26;96039.53;2041146;29;20058;-59
2022/12/07 01:16:23;;;;;;;17.65;11.63;;;;;;;0.78;91.50;96038.69;2040873;29;20063;-59
2022/12/07 01:17:24;;;;;;;16.85;11.23;;;;;;;0.80;91.39;96041.22;2040958;29;20055;-59
2022/12/07 01:18:26;;;;;;;18.00;10.63;;;;;;;0.80;91.29;96031.00;2041350;29;20059;-59
2022/12/07 01:19:27;;;;;;;16.70;11.10;;;;;;;0.82;91.18;96036.97;2040262;29;20063;-60
2022/12/07 01:20:29;;;;;;;15.65;10.02;;;;;;;0.83;91.35;96043.78;2040959;29;20066;-60
2022/12/07 01:21:37;;;;;;;17.15;11.40;;;;;;;0.81;91.26;96043.78;2041353;29;20051;-59
2022/12/07 01:22:41;;;;;;;16.15;10.70;;;;;;;0.83;91.54;96036.13;2041199;29;20052;-60
2022/12/07 01:23:43;;;;;;;16.40;10.68;;;;;;;0.86;91.38;96030.97;2041139;29;20055;-60
2022/12/07 01:24:46;;;;;;;17.02;11.25;;;;;;;0.79;91.50;96036.97;2040827;29;20055;-60
2022/12/07 01:25:54;;;;;;;17.90;11.00;;;;;;;0.68;91.73;96037.06;2040918;29;20055;-60
2022/12/07 01:26:55;;;;;;;15.63;10.63;;;;;;;0.59;92.77;96043.13;2041307;29;20048;-58
2022/12/07 01:27:56;;;;;;;17.48;10.75;;;;;;;0.63;92.26;96036.25;2041191;29;20047;-58
2022/12/07 01:28:58;;;;;;;17.67;10.95;;;;;;;0.71;92.16;96038.75;2041640;29;20479;-58
2022/12/07 01:30:00;;;;;;;17.45;11.27;;;;;;;0.76;92.33;96040.41;2040840;29;20047;-58
2022/12/07 01:31:03;;;;;;;16.55;11.18;;;;;;;0.76;92.02;96035.31;2041476;29;20342;-58
2022/12/07 01:32:04;;;;;;;16.02;10.30;;;;;;;0.74;91.69;96039.56;2041061;29;20054;-58
2022/12/07 01:33:05;;;;;;;18.33;10.68;;;;;;;0.77;91.71;96041.25;2041099;29;20415;-58
2022/12/07 01:34:06;;;;;;;16.92;11.20;;;;;;;0.77;91.59;96036.97;2040854;29;20047;-59
2022/12/07 01:35:07;;;;;;;15.98;10.38;;;;;;;0.72;92.16;96040.44;2041359;29;20043;-58
2022/12/07 01:36:22;;;;;;;17.20;11.40;;;;;;;0.78;91.79;96041.25;2040727;29;20138;-58
2022/12/07 01:37:23;;;;;;;16.77;10.88;;;;;;;0.74;91.75;96034.47;2041147;29;20052;-58
2022/12/07 01:38:24;;;;;;;15.45;11.20;;;;;;;0.79;91.77;96042.09;2042294;29;20047;-59
2022/12/07 01:39:26;;;;;;;17.67;10.73;;;;;;;0.81;91.30;96035.28;2042235;29;20517;-58
2022/12/07 01:40:27;;;;;;;17.58;11.38;;;;;;;0.80;91.11;96042.09;2042707;29;20380;-59
2022/12/07 01:41:30;;;;;;;16.63;10.90;;;;;;;0.78;91.17;96046.38;2042934;29;20036;-58
2022/12/07 01:42:31;;;;;;;15.38;10.10;;;;;;;0.71;91.28;96025.97;2042751;29;20048;-58
2022/12/07 01:43:33;;;;;;;18.15;10.55;;;;;;;0.85;91.63;96040.31;2042879;29;20047;-59
2022/12/07 01:45:12;;;;;;;20.48;10.88;;;;;;;0.84;91.53;96042.91;2042338;29;20415;-58
2022/12/07 01:46:13;;;;;;;17.83;10.93;;;;;;;0.78;91.27;96043.81;2042321;29;20047;-58
2022/12/07 01:47:15;;;;;;;16.92;10.05;;;;;;;0.77;91.24;96041.25;2042689;29;20484;-59
2022/12/07 01:48:17;;;;;;;16.33;11.05;;;;;;;0.64;91.56;96020.94;2042714;29;20043;-60
2022/12/07 01:49:22;;;;;;;15.57;10.55;;;;;;;0.77;91.63;96036.97;2042948;29;20132;-60
2022/12/07 01:50:26;;;;;;;16.73;10.50;;;;;;;0.75;91.58;96028.50;2042160;29;20040;-60
2022/12/07 01:51:27;;;;;;;16.20;10.30;;;;;;;0.77;91.09;96026.75;2034642;29;20053;-62
2022/12/07 01:52:30;;;;;;;19.42;10.93;;;;;;;0.83;91.20;96033.56;2041966;29;20480;-62
2022/12/07 01:53:31;;;;;;;17.50;11.13;;;;;;;0.81;91.43;96023.31;2042377;29;20064;-62
2022/12/07 01:54:32;;;;;;;17.95;11.10;;;;;;;0.83;91.24;96025.88;2041743;29;20415;-62
2022/12/07 01:55:34;;;;;;;17.60;11.57;;;;;;;0.84;91.43;96030.13;2041906;29;20059;-63
2022/12/07 01:56:35;;;;;;;17.67;11.13;;;;;;;0.86;90.83;96028.41;2041979;29;20051;-63
2022/12/07 01:57:38;;;;;;;17.00;11.23;;;;;;;0.87;90.88;96025.81;2026403;29;20445;-63
2022/12/07 01:58:40;;;;;;;15.68;10.23;;;;;;;0.88;90.76;96024.97;2026935;29;20063;-63
2022/12/07 01:59:41;;;;;;;16.60;10.65;;;;;;;0.85;90.60;96019.03;2042189;29;20534;-61
2022/12/07 02:00:42;;;;;;;15.65;10.23;;;;;;;0.73;91.04;96025.09;2042155;29;20035;-62
2022/12/07 02:01:43;;;;;;;15.32;10.48;;;;;;;0.79;91.38;96026.75;2042241;29;20054;-62
2022/12/07 02:02:57;;;;;;;16.92;10.88;;;;;;;0.82;91.01;96027.56;2042079;29;20485;-62
2022/12/07 02:03:58;;;;;;;15.13;9.77;;;;;;;0.83;91.00;96024.16;2035591;29;20032;-62
2022/12/07 02:05:00;;;;;;;17.02;10.90;;;;;;;0.74;90.89;96020.84;2041683;29;20048;-62
2022/12/07 02:06:01;;;;;;;15.65;10.77;;;;;;;0.70;90.99;96014.06;2042353;29;20070;-62
2022/12/07 02:07:02;;;;;;;16.83;11.07;;;;;;;0.69;91.09;96022.56;2042615;29;20472;-58
2022/12/07 02:08:03;;;;;;;16.50;11.07;;;;;;;0.65;91.26;96030.28;2041091;29;20074;-58
2022/12/07 02:09:05;;;;;;;16.65;10.63;;;;;;;0.72;91.18;96023.38;2042180;28;20047;-58
2022/12/07 02:10:14;;;;;;;17.00;10.95;;;;;;;0.78;91.13;96022.53;2042006;29;20408;-59
2022/12/07 02:11:15;;;;;;;15.88;10.55;;;;;;;0.80;91.14;96018.22;2042190;29;20052;-58
2022/12/07 02:12:16;;;;;;;16.17;11.05;;;;;;;0.82;91.10;96019.06;2042019;29;20040;-59
2022/12/07 02:13:22;;;;;;;16.13;10.15;;;;;;;0.83;90.69;96019.06;2033849;29;20385;-58
2022/12/07 02:14:23;;;;;;;17.52;11.00;;;;;;;0.82;90.59;96025.00;2041903;29;20051;-58
2022/12/07 02:15:34;;;;;;;14.65;9.98;;;;;;;0.84;90.75;96017.34;2042063;29;20055;-58
2022/12/07 02:16:54;;;;;;;16.73;10.73;;;;;;;0.79;90.62;96016.53;2034657;29;20044;-58
2022/12/07 02:18:06;;;;;;;17.75;11.27;;;;;;;0.81;90.61;96014.81;2036642;29;20059;-58
2022/12/07 02:19:34;;;;;;;18.90;11.10;;;;;;;0.80;91.09;96019.09;2035419;29;20051;-59
2022/12/07 02:20:54;;;;;;;;;;;;;;;0.78;90.83;96015.69;2042489;29;20487;-58
2022/12/07 02:22:01;;;;;;;15.57;9.80;;;;;;;0.75;90.53;96022.53;2042267;29;20287;-58
2022/12/07 02:23:23;;;;;;;18.83;11.15;;;;;;;0.74;91.19;96016.56;2026366;29;20048;-58
2022/12/07 02:24:33;;;;;;;16.92;10.68;;;;;;;0.72;90.99;96022.56;2032231;29;20052;-59
2022/12/07 02:25:56;;;;;;;18.67;11.07;;;;;;;0.76;90.60;96021.69;2042163;29;20403;-59
2022/12/07 02:27:06;;;;;;;16.23;10.32;;;;;;;0.74;90.94;96020.84;2042400;29;20032;-58
2022/12/07 02:28:27;;;;;;;17.45;10.77;;;;;;;0.74;91.08;96023.41;2042127;29;20052;-58
2022/12/07 02:29:33;;;;;;;17.05;10.48;;;;;;;0.73;90.94;96014.88;2040963;29;20062;-58
2022/12/07 02:30:35;;;;;;;19.08;12.45;;;;;;;0.74;90.90;96021.69;2027330;29;20064;-58
2022/12/07 02:31:37;;;;;;;17.20;11.13;;;;;;;0.75;91.12;96025.94;2026506;29;20052;-58
2022/12/07 02:32:41;;;;;;;17.55;10.68;;;;;;;0.75;90.95;96017.41;2025942;29;20481;-58
2022/12/07 02:33:45;;;;;;;16.20;11.00;;;;;;;0.75;90.72;96020.84;2034058;29;20056;-58
2022/12/07 02:34:50;;;;;;;17.75;11.63;;;;;;;0.74;90.93;96020.84;2041914;29;20508;-58
2022/12/07 02:36:02;;;;;;;16.42;10.68;;;;;;;0.76;90.78;96025.06;2034223;29;20107;-59
2022/12/07 02:37:08;;;;;;;17.00;10.52;;;;;;;0.66;91.21;96001.28;2040948;29;20052;-58
2022/12/07 02:38:30;;;;;;;17.48;11.50;;;;;;;0.82;91.08;96021.63;2041579;29;20059;-57
2022/12/07 02:39:40;;;;;;;17.05;11.40;;;;;;;0.79;90.76;96019.09;2036875;29;20052;-57
2022/12/07 02:40:55;;;;;;;17.10;10.40;;;;;;;0.74;90.85;96015.72;2030095;29;20039;-57
2022/12/07 02:41:58;;;;;;;18.45;10.80;;;;;;;0.75;90.66;96025.06;2029862;29;20512;-57
2022/12/07 02:43:04;;;;;;;17.05;10.20;;;;;;;0.75;90.53;96019.97;2041790;29;20040;-57
2022/12/07 02:44:07;;;;;;;20.15;11.45;;;;;;;0.76;90.60;96019.13;2041976;29;20040;-56
2022/12/07 02:45:08;;;;;;;16.58;10.80;;;;;;;0.76;90.39;96017.41;2026331;29;20045;-57
2022/12/07 02:46:12;;;;;;;17.33;11.77;;;;;;;0.76;90.75;96016.56;2026231;29;20111;-57
2022/12/07 02:47:14;;;;;;;18.48;11.32;;;;;;;0.77;91.00;96015.69;2018443;29;20109;-58
2022/12/07 02:48:16;;;;;;;16.27;10.88;;;;;;;0.78;90.68;96014.84;2034021;29;20508;-58
2022/12/07 02:49:17;;;;;;;16.30;10.40;;;;;;;0.72;90.83;96004.66;2033449;29;20059;-57
2022/12/07 02:50:20;;;;;;;17.85;11.88;;;;;;;0.76;90.80;96014.84;2025229;29;20056;-58
2022/12/07 02:51:21;;;;;;;16.70;11.10;;;;;;;0.78;90.46;96012.28;2025715;29;20060;-58
2022/12/07 02:52:22;;;;;;;19.33;11.52;;;;;;;0.76;90.47;96014.00;2033475;29;20147;-58
2022/12/07 02:53:36;;;;;;;16.30;11.10;;;;;;;0.75;90.38;96014.84;2042080;29;20066;-58
2022/12/07 02:54:38;;;;;;;17.80;11.40;;;;;;;0.64;91.00;96015.81;2041885;29;20055;-57
2022/12/07 02:55:39;;;;;;;17.27;11.07;;;;;;;0.69;90.70;96013.19;2041884;29;20078;-58
2022/12/07 02:56:43;;;;;;;18.48;11.43;;;;;;;0.72;90.44;96012.31;2041617;29;20062;-61
2022/12/07 02:58:06;;;;;;;17.08;11.50;;;;;;;0.74;90.65;96013.16;2041545;29;20055;-62
2022/12/07 02:59:45;;;;;;;16.33;10.55;;;;;;;0.73;90.68;96014.03;2041520;29;20054;-61
2022/12/07 03:00:59;;;;;;;17.95;10.90;;;;;;;0.70;90.66;96014.91;2042186;29;20035;-62
2022/12/07 03:02:18;;;;;;;15.68;10.65;;;;;;;0.68;90.43;96013.22;2041714;29;20048;-62
2022/12/07 03:03:19;;;;;;;18.73;11.35;;;;;;;0.65;90.59;96011.53;2042350;29;20403;-62
2022/12/07 03:04:44;;;;;;;16.08;10.60;;;;;;;0.69;90.25;96010.63;2041584;29;20059;-63
2022/12/07 03:06:06;;;;;;;17.23;11.27;;;;;;;0.71;90.59;96006.38;2041192;29;20063;-61
2022/12/07 03:07:44;;;;;;;16.45;10.38;;;;;;;0.74;90.24;96015.72;2041558;29;20039;-62
2022/12/07 03:08:54;;;;;;;17.58;11.48;;;;;;;0.69;90.52;96017.47;2041871;29;20052;-62
2022/12/07 03:10:01;;;;;;;15.77;10.85;;;;;;;0.70;90.86;96011.50;2041059;29;20408;-62
2022/12/07 03:11:34;;;;;;;15.75;10.48;;;;;;;0.70;90.81;96008.97;2026888;29;20053;-62
2022/12/07 03:12:42;;;;;;;17.08;10.68;;;;;;;0.70;90.32;96011.50;2037652;29;20388;-62
2022/12/07 03:13:45;;;;;;;18.02;12.10;;;;;;;0.72;90.51;96010.59;2033533;29;20491;-62
2022/12/07 03:14:52;;;;;;;20.35;11.75;;;;;;;0.70;90.77;96008.97;2034544;29;20519;-62
2022/12/07 03:16:14;;;;;;;15.15;10.30;;;;;;;0.74;90.53;96013.16;2041446;29;20040;-61
2022/12/07 03:17:17;;;;;;;17.95;11.60;;;;;;;0.73;90.70;96009.78;2041219;29;20067;-57
2022/12/07 03:18:20;;;;;;;19.15;12.18;;;;;;;0.65;90.90;96003.88;2041583;29;20407;-57
2022/12/07 03:19:21;;;;;;;18.63;12.02;;;;;;;0.59;90.96;96007.34;2033857;29;20066;-57
2022/12/07 03:20:22;;;;;;;20.85;11.52;;;;;;;0.63;91.38;96011.53;2025572;29;20060;-57
2022/12/07 03:21:31;;;;;;;16.20;10.65;;;;;;;0.62;91.08;96006.47;2032767;29;20059;-56
2022/12/07 03:22:33;;;;;;;15.43;10.57;;;;;;;0.57;91.17;96001.38;2033639;29;20095;-57
2022/12/07 03:23:34;;;;;;;17.27;11.05;;;;;;;0.63;91.16;96008.16;2025894;29;20057;-57
2022/12/07 03:24:39;;;;;;;18.50;11.27;;;;;;;0.62;91.29;96006.47;2041061;29;20052;-57
2022/12/07 03:25:48;;;;;;;18.27;11.63;;;;;;;0.59;91.46;96015.00;2041370;29;20055;-57
2022/12/07 03:26:53;;;;;;;22.48;12.98;;;;;;;0.59;91.04;96009.88;2026731;29;20059;-57
2022/12/07 03:27:58;;;;;;;17.50;11.18;;;;;;;0.66;90.89;96008.13;2026952;29;20032;-57
2022/12/07 03:29:01;;;;;;;17.80;11.27;;;;;;;0.59;91.42;96012.44;2040468;29;20054;-57
2022/12/07 03:30:05;;;;;;;18.75;11.90;;;;;;;0.61;91.22;96005.59;2041277;29;20047;-57
2022/12/07 03:31:22;;;;;;;18.55;11.88;;;;;;;0.65;91.06;96011.53;2041623;29;20039;-57
2022/12/07 03:32:30;;;;;;;19.00;11.90;;;;;;;0.66;91.10;96005.56;2041424;29;20039;-57
2022/12/07 03:33:43;;;;;;;17.77;11.77;;;;;;;0.56;91.31;96015.03;2026830;29;20052;-57
2022/12/07 03:34:51;;;;;;;20.35;12.02;;;;;;;0.53;91.82;96009.91;2029094;29;20051;-58
2022/12/07 03:36:24;;;;;;;17.48;10.73;;;;;;;0.50;91.35;95994.63;2027260;29;20053;-57
2022/12/07 03:37:34;;;;;;;17.92;10.80;;;;;;;0.61;91.15;96005.59;2027198;29;20058;-57
2022/12/07 03:38:40;;;;;;;18.67;11.63;;;;;;;0.61;91.45;96002.19;2049008;29;20055;-58
2022/12/07 03:39:46;;;;;;;18.77;11.68;;;;;;;0.63;91.13;96008.16;2040624;29;20047;-57
2022/12/07 03:40:54;;;;;;;18.50;12.13;;;;;;;0.61;91.45;96003.03;2033548;29;20074;-57
2022/12/07 03:41:55;;;;;;;19.63;11.98;;;;;;;0.61;91.43;96000.47;2041319;29;20044;-58
2022/12/07 03:42:59;;;;;;;18.40;11.77;;;;;;;0.58;91.53;95999.66;2041236;29;20405;-58
2022/12/07 03:44:00;;;;;;;18.48;11.98;;;;;;;0.51;91.55;96009.09;2025983;29;20512;-58
2022/12/07 03:45:04;;;;;;;17.85;11.95;;;;;;;0.52;92.43;96008.22;2033852;29;20028;-58
2022/12/07 03:46:44;;;;;;;20.33;12.48;;;;;;;0.58;91.89;96004.78;2048275;29;20074;-58
2022/12/07 03:47:50;;;;;;;17.40;11.30;;;;;;;0.57;91.57;96001.38;2035667;29;20048;-58
2022/12/07 03:49:00;;;;;;;18.60;11.90;;;;;;;0.55;91.48;96000.53;2036728;29;20051;-58
2022/12/07 03:50:28;;;;;;;18.42;11.70;;;;;;;0.54;91.89;96006.53;2032979;29;20059;-58
2022/12/07 03:51:56;;;;;;;19.30;11.68;;;;;;;0.55;91.85;96009.91;2040413;29;20403;-55
2022/12/07 03:53:11;;;;;;;19.02;11.70;;;;;;;0.53;91.40;95999.69;2045970;29;20039;-54
2022/12/07 03:54:54;;;;;;;17.90;11.20;;;;;;;0.52;92.04;96010.78;2040915;29;20050;-54
2022/12/07 03:55:55;;;;;;;16.95;10.98;;;;;;;0.52;92.03;96005.69;2040922;29;20047;-55
2022/12/07 03:56:56;;;;;;;18.38;11.73;;;;;;;0.50;91.99;95999.72;2040648;29;20377;-55
2022/12/07 03:58:02;;;;;;;20.52;12.30;;;;;;;0.51;91.92;96004.00;2032713;29;20044;-54
2022/12/07 03:59:04;;;;;;;19.58;12.38;;;;;;;0.46;91.97;96005.72;2034041;29;20047;-54
2022/12/07 04:00:06;;;;;;;19.67;11.80;;;;;;;0.49;91.65;96010.81;2033088;29;20448;-55
2022/12/07 04:01:13;;;;;;;18.95;12.07;;;;;;;0.51;92.15;96005.69;2040832;29;20060;-54
2022/12/07 04:02:14;;;;;;;21.23;11.85;;;;;;;0.49;91.80;96010.81;2047935;29;20054;-58
2022/12/07 04:03:15;;;;;;;19.88;12.02;;;;;;;0.53;91.65;96011.63;2048893;29;20529;-59
2022/12/07 04:04:17;;;;;;;18.67;11.05;;;;;;;0.54;91.83;96011.63;2041623;29;20023;-58
2022/12/07 04:05:18;;;;;;;18.75;11.23;;;;;;;0.52;91.95;96004.84;2041872;29;20384;-58
2022/12/07 04:06:19;;;;;;;19.95;12.57;;;;;;;0.50;92.32;96007.38;2041137;29;20056;-58
2022/12/07 04:07:20;;;;;;;19.95;12.20;;;;;;;0.52;92.23;96008.22;2041619;29;20056;-58
2022/12/07 04:08:21;;;;;;;21.42;12.30;;;;;;;0.52;92.05;96010.78;2041204;29;20133;-58
2022/12/07 04:09:22;;;;;;;20.52;12.45;;;;;;;0.52;91.99;95999.72;2041339;29;20059;-58
2022/12/07 04:10:23;;;;;;;20.45;12.15;;;;;;;0.50;91.87;96017.59;2041465;29;20051;-58
2022/12/07 04:11:25;;;;;;;18.52;12.00;;;;;;;0.54;92.31;96013.34;2041867;29;20036;-59
2022/12/07 04:12:26;;;;;;;19.08;12.35;;;;;;;0.55;92.01;96012.47;2041574;29;20047;-62
2022/12/07 04:13:27;;;;;;;19.60;12.95;;;;;;;0.56;91.85;96006.50;2041452;29;20062;-62
2022/12/07 04:14:28;;;;;;;18.98;12.30;;;;;;;0.50;91.81;96007.38;2041783;29;20051;-62
2022/12/07 04:15:29;;;;;;;18.08;11.75;;;;;;;0.48;92.17;96016.75;2041462;29;20466;-62
2022/12/07 04:16:30;;;;;;;18.83;12.15;;;;;;;0.52;92.46;96007.38;2041484;29;20051;-61
2022/12/07 04:17:31;;;;;;;21.75;12.35;;;;;;;0.53;91.98;96015.03;2041344;29;20047;-62
2022/12/07 04:18:32;;;;;;;19.73;12.43;;;;;;;0.54;91.95;96014.19;2041186;29;20051;-62
2022/12/07 04:19:34;;;;;;;25.92;13.35;;;;;;;0.54;92.02;96006.53;2041665;29;20060;-61
2022/12/07 04:20:35;;;;;;;20.13;12.45;;;;;;;0.50;92.18;96001.44;2041543;29;20043;-61
2022/12/07 04:21:36;;;;;;;19.35;12.35;;;;;;;0.53;92.28;96009.91;2041406;29;20052;-62
2022/12/07 04:22:37;;;;;;;20.73;12.98;;;;;;;0.48;92.15;96005.69;2041614;29;20040;-62
2022/12/07 04:23:38;;;;;;;19.35;12.68;;;;;;;0.48;92.53;96000.59;2041034;29;20075;-62
2022/12/07 04:24:39;;;;;;;19.77;13.07;;;;;;;0.50;92.58;96006.53;2041729;29;20051;-61
2022/12/07 04:25:40;;;;;;;22.90;12.75;;;;;;;0.47;92.59;96004.88;2041874;29;20050;-61
2022/12/07 04:26:41;;;;;;;21.30;13.70;;;;;;;0.49;92.67;96008.25;2041613;29;20047;-62
2022/12/07 04:27:42;;;;;;;19.65;12.98;;;;;;;0.50;92.04;96002.28;2041462;29;20059;-62
2022/12/07 04:28:44;;;;;;;20.05;13.07;;;;;;;0.49;92.30;96004.88;2041153;29;20066;-62
2022/12/07 04:29:45;;;;;;;21.05;13.38;;;;;;;0.52;92.15;96009.94;2041701;29;20411;-60
2022/12/07 04:30:46;;;;;;;20.08;12.45;;;;;;;0.49;92.05;96000.59;2041756;29;20043;-61
2022/12/07 04:31:47;;;;;;;21.83;13.13;;;;;;;0.48;92.29;96005.69;2041746;29;20047;-55
2022/12/07 04:32:48;;;;;;;21.00;12.93;;;;;;;0.48;92.33;96001.44;2040990;29;20052;-54
2022/12/07 04:33:49;;;;;;;23.63;13.25;;;;;;;0.49;92.43;96004.88;2041409;29;20407;-54
2022/12/07 04:34:50;;;;;;;21.00;13.63;;;;;;;0.46;92.48;96004.91;2041613;29;20036;-54
2022/12/07 04:35:51;;;;;;;21.13;13.45;;;;;;;0.42;92.36;96002.34;2041592;29;20050;-54
2022/12/07 04:36:52;;;;;;;23.73;14.25;;;;;;;0.41;92.93;95998.09;2041373;29;20047;-55
2022/12/07 04:37:54;;;;;;;20.50;12.98;;;;;;;0.48;92.42;95998.88;2041449;29;20596;-54
2022/12/07 04:38:55;;;;;;;21.33;13.10;;;;;;;0.50;92.47;96001.44;2041675;29;20044;-55
2022/12/07 04:39:56;;;;;;;22.23;14.43;;;;;;;0.49;92.50;96000.59;2040917;29;20056;-54
2022/12/07 04:40:57;;;;;;;20.20;12.98;;;;;;;0.54;92.50;96000.56;2041485;29;20063;-55
2022/12/07 04:41:59;;;;;;;19.73;13.02;;;;;;;0.53;92.43;95993.75;2041734;29;20036;-54
2022/12/07 04:43:00;;;;;;;21.95;13.65;;;;;;;0.49;92.11;95997.19;2041402;29;20036;-55
2022/12/07 04:44:02;;;;;;;20.77;13.68;;;;;;;0.40;92.45;95987.88;2041138;29;20047;-54
2022/12/07 04:45:04;;;;;;;22.58;13.50;;;;;;;0.46;92.26;95999.78;2041583;29;20050;-55
2022/12/07 04:46:05;;;;;;;21.65;13.98;;;;;;;0.44;92.08;95997.22;2041501;29;20380;-54
2022/12/07 04:47:06;;;;;;;19.38;13.18;;;;;;;0.49;92.54;95992.94;2041298;29;20054;-61
2022/12/07 04:48:07;;;;;;;19.55;12.25;;;;;;;0.52;92.50;96000.56;2041076;29;20058;-61
2022/12/07 04:49:09;;;;;;;22.42;13.48;;;;;;;0.50;92.38;95997.16;2041497;29;20059;-61
2022/12/07 04:50:10;;;;;;;19.30;13.05;;;;;;;0.44;92.47;95984.44;2041595;29;20043;-60
2022/12/07 04:51:11;;;;;;;21.38;13.38;;;;;;;0.53;92.03;95999.69;2041524;29;20126;-61
2022/12/07 04:52:12;;;;;;;23.67;14.40;;;;;;;0.48;92.34;95998.88;2041151;29;20495;-62
2022/12/07 04:53:13;;;;;;;23.60;14.57;;;;;;;0.49;92.60;96005.72;2040052;29;20052;-61
2022/12/07 04:54:15;;;;;;;20.30;13.60;;;;;;;0.53;92.43;96001.41;2041559;29;20060;-62
2022/12/07 04:55:16;;;;;;;20.90;13.45;;;;;;;0.56;92.29;95996.28;2041349;29;20060;-62
2022/12/07 04:56:17;;;;;;;21.60;14.27;;;;;;;0.58;91.84;95999.66;2040906;29;20063;-61
2022/12/07 04:57:18;;;;;;;21.55;14.32;;;;;;;0.58;91.99;96000.50;2040936;29;20059;-61
2022/12/07 04:58:19;;;;;;;21.67;14.15;;;;;;;0.58;91.80;95997.94;2041216;29;20060;-61
2022/12/07 04:59:20;;;;;;;20.35;13.80;;;;;;;0.57;92.22;95991.16;2040909;29;20395;-61
2022/12/07 05:00:21;;;;;;;19.67;12.85;;;;;;;0.55;92.32;95992.88;2041364;29;20047;-61
2022/12/07 05:01:23;;;;;;;24.73;13.55;;;;;;;0.58;92.14;96000.50;2041260;29;20048;-62